createdAt,value
2019-04-04T00:02:25.045Z,54.91
2019-04-04T00:04:57.782Z,54.89
2019-04-04T00:07:29.067Z,54.33
2019-04-04T00:10:00.148Z,54.35
2019-04-04T00:12:31.173Z,53.54
2019-04-04T00:15:02.014Z,52.98
2019-04-04T00:17:32.947Z,52.45
2019-04-04T00:20:04.973Z,51.62
2019-04-04T00:22:35.875Z,52.20
2019-04-04T00:25:09.670Z,51.76
2019-04-04T00:27:38.757Z,51.93
2019-04-04T00:30:09.385Z,50.57
2019-04-04T00:32:40.323Z,50.43
2019-04-04T00:35:10.955Z,50.21
2019-04-04T00:37:41.687Z,50.29
2019-04-04T00:40:12.528Z,50.52
2019-04-04T00:42:42.951Z,49.94
2019-04-04T00:45:13.889Z,49.92
2019-04-04T00:47:44.725Z,49.41
2019-04-04T00:50:15.454Z,49.32
2019-04-04T00:52:46.292Z,49.38
2019-04-04T00:55:17.132Z,49.68
2019-04-04T00:57:48.250Z,49.44
2019-04-04T01:00:20.235Z,48.83
2019-04-04T01:02:51.282Z,47.98
2019-04-04T01:05:22.040Z,48.06
2019-04-04T01:07:52.777Z,48.00
2019-04-04T01:10:23.676Z,47.87
2019-04-04T01:12:54.513Z,48.19
2019-04-04T01:15:25.425Z,48.11
2019-04-04T01:17:56.183Z,48.23
2019-04-04T01:20:27.020Z,48.23
2019-04-04T01:22:57.753Z,47.76
2019-04-04T01:25:31.825Z,48.90
2019-04-04T01:28:00.760Z,48.58
2019-04-04T01:30:31.699Z,48.09
2019-04-04T01:33:03.826Z,47.09
2019-04-04T01:35:35.746Z,47.09
2019-04-04T01:38:06.563Z,47.22
2019-04-04T01:40:37.296Z,47.87
2019-04-04T01:43:09.342Z,48.26
2019-04-04T01:45:43.715Z,47.52
2019-04-04T01:48:12.978Z,48.23
2019-04-04T01:50:43.918Z,47.52
2019-04-04T01:53:14.648Z,47.68
2019-04-04T01:55:45.715Z,47.28
2019-04-04T01:58:16.524Z,49.14
2019-04-04T02:00:47.481Z,48.27
2019-04-04T02:03:18.397Z,47.87
2019-04-04T02:05:49.136Z,47.82
2019-04-04T02:08:19.969Z,47.54
2019-04-04T02:10:50.707Z,47.84
2019-04-04T02:13:21.535Z,48.31
2019-04-04T02:15:52.425Z,48.45
2019-04-04T02:18:23.977Z,48.98
2019-04-04T02:20:57.551Z,49.15
2019-04-04T02:23:27.185Z,49.52
2019-04-04T02:25:57.729Z,49.82
2019-04-04T02:28:28.923Z,49.82
2019-04-04T02:31:00.056Z,48.79
2019-04-04T02:33:32.463Z,49.63
2019-04-04T02:36:03.004Z,50.09
2019-04-04T02:38:33.721Z,49.85
2019-04-04T02:41:04.632Z,49.48
2019-04-04T02:43:35.463Z,49.90
2019-04-04T02:46:08.656Z,50.30
2019-04-04T02:48:38.392Z,49.96
2019-04-04T02:51:09.269Z,49.56
2019-04-04T02:53:40.160Z,49.18
2019-04-04T02:56:10.977Z,49.05
2019-04-04T02:58:43.788Z,49.47
2019-04-04T03:01:14.386Z,49.15
2019-04-04T03:03:45.321Z,48.50
2019-04-04T03:06:16.160Z,48.18
2019-04-04T03:08:46.896Z,48.65
2019-04-04T03:11:21.192Z,48.37
2019-04-04T03:13:50.006Z,48.13
2019-04-04T03:16:22.573Z,48.46
2019-04-04T03:18:53.621Z,48.95
2019-04-04T03:21:24.439Z,49.13
2019-04-04T03:23:55.019Z,48.72
2019-04-04T03:26:25.446Z,47.99
2019-04-04T03:28:55.884Z,48.09
2019-04-04T03:31:26.659Z,47.94
2019-04-04T03:33:58.364Z,48.11
2019-04-04T03:36:30.719Z,48.35
2019-04-04T03:39:01.428Z,48.37
2019-04-04T03:41:35.839Z,48.30
2019-04-04T03:44:04.337Z,48.22
2019-04-04T03:46:38.701Z,47.92
2019-04-04T03:49:07.335Z,47.76
2019-04-04T03:51:38.293Z,48.30
2019-04-04T03:54:10.850Z,47.69
2019-04-04T03:56:41.510Z,47.31
2019-04-04T03:59:12.111Z,47.52
2019-04-04T04:01:46.497Z,47.04
2019-04-04T04:04:15.130Z,47.13
2019-04-04T04:06:45.887Z,46.81
2019-04-04T04:09:16.789Z,46.80
2019-04-04T04:11:47.722Z,46.73
2019-04-04T04:14:21.611Z,46.68
2019-04-04T04:16:50.661Z,46.27
2019-04-04T04:19:24.175Z,46.25
2019-04-04T04:21:53.637Z,45.98
2019-04-04T04:24:26.735Z,46.44
2019-04-04T04:26:56.654Z,45.82
2019-04-04T04:29:29.894Z,45.85
2019-04-04T04:31:59.431Z,45.47
2019-04-04T04:34:32.911Z,45.02
2019-04-04T04:37:02.435Z,44.52
2019-04-04T04:39:40.799Z,44.20
2019-04-04T04:42:05.538Z,42.79
2019-04-04T04:44:38.748Z,41.28
2019-04-04T04:47:09.259Z,40.95
2019-04-04T04:49:40.100Z,40.83
2019-04-04T04:52:14.207Z,41.97
2019-04-04T04:54:43.569Z,42.76
2019-04-04T04:57:28.445Z,42.28
2019-04-04T04:59:46.716Z,40.91
2019-04-04T05:02:17.759Z,40.82
2019-04-04T05:04:49.618Z,42.05
2019-04-04T05:07:20.360Z,41.85
2019-04-04T05:09:51.198Z,40.68
2019-04-04T05:12:22.275Z,40.89
2019-04-04T05:14:53.170Z,40.58
2019-04-04T05:17:24.106Z,39.67
2019-04-04T05:19:54.947Z,38.20
2019-04-04T05:22:25.774Z,37.31
2019-04-04T05:25:08.047Z,37.24
2019-04-04T05:27:28.895Z,36.71
2019-04-04T05:29:59.721Z,37.96
2019-04-04T05:32:30.447Z,36.79
2019-04-04T05:35:02.083Z,36.27
2019-04-04T05:37:34.115Z,36.81
2019-04-04T05:40:05.940Z,36.69
2019-04-04T05:42:36.756Z,37.93
2019-04-04T05:45:08.123Z,37.22
2019-04-04T05:47:38.952Z,37.35
2019-04-04T05:50:11.353Z,38.30
2019-04-04T05:52:42.244Z,39.74
2019-04-04T05:55:12.995Z,40.61
2019-04-04T05:57:43.935Z,40.84
2019-04-04T06:00:15.491Z,40.99
2019-04-04T06:02:46.339Z,40.33
2019-04-04T06:05:17.482Z,40.00
2019-04-04T06:07:48.197Z,39.28
2019-04-04T06:10:20.381Z,39.49
2019-04-04T06:12:51.198Z,39.10
2019-04-04T06:15:21.927Z,39.23
2019-04-04T06:17:53.272Z,39.00
2019-04-04T06:20:24.014Z,38.56
2019-04-04T06:22:54.969Z,36.79
2019-04-04T06:25:26.100Z,36.85
2019-04-04T06:27:56.936Z,37.45
2019-04-04T06:30:27.875Z,36.72
2019-04-04T06:32:58.717Z,36.09
2019-04-04T06:35:29.539Z,35.61
2019-04-04T06:38:00.479Z,34.71
2019-04-04T06:40:31.423Z,34.79
2019-04-04T06:43:03.841Z,34.50
2019-04-04T06:45:34.628Z,35.36
2019-04-04T06:48:05.477Z,35.22
2019-04-04T06:50:39.215Z,36.28
2019-04-04T06:53:08.476Z,36.34
2019-04-04T06:55:40.275Z,36.12
2019-04-04T06:58:10.964Z,36.05
2019-04-04T07:00:42.340Z,35.16
2019-04-04T07:03:12.841Z,34.73
2019-04-04T07:05:43.669Z,33.45
2019-04-04T07:08:15.204Z,32.61
2019-04-04T07:10:57.402Z,31.24
2019-04-04T07:13:21.929Z,31.99
2019-04-04T07:16:05.470Z,33.00
2019-04-04T07:18:23.276Z,33.97
2019-04-04T07:20:54.001Z,33.22
2019-04-04T07:23:27.360Z,33.89
2019-04-04T07:25:57.018Z,32.90
2019-04-04T07:28:30.710Z,33.09
2019-04-04T07:31:01.739Z,31.02
2019-04-04T07:33:33.106Z,29.75
2019-04-04T07:36:03.945Z,30.30
2019-04-04T07:38:35.121Z,30.83
2019-04-04T07:41:07.893Z,30.61
2019-04-04T07:43:39.491Z,30.84
2019-04-04T07:46:16.795Z,30.46
2019-04-04T07:48:43.039Z,29.90
2019-04-04T07:51:13.976Z,28.99
2019-04-04T07:53:44.806Z,29.16
2019-04-04T07:56:15.658Z,29.42
2019-04-04T07:58:46.370Z,30.27
2019-04-04T08:01:17.312Z,29.21
2019-04-04T08:03:48.257Z,29.20
2019-04-04T08:06:19.604Z,30.17
2019-04-04T08:08:50.335Z,29.11
2019-04-04T08:11:21.180Z,28.93
2019-04-04T08:13:52.216Z,29.89
2019-04-04T08:16:23.051Z,28.75
2019-04-04T08:18:54.101Z,28.70
2019-04-04T08:21:25.369Z,27.94
2019-04-04T08:23:56.067Z,28.80
2019-04-04T08:26:26.896Z,27.29
2019-04-04T08:28:57.840Z,28.07
2019-04-04T08:31:28.675Z,27.63
2019-04-04T08:33:59.414Z,27.06
2019-04-04T08:36:30.167Z,27.33
2019-04-04T08:39:01.087Z,28.11
2019-04-04T08:41:31.919Z,27.23
2019-04-04T08:44:02.758Z,27.36
2019-04-04T08:46:33.484Z,27.51
2019-04-04T08:49:04.224Z,27.74
2019-04-04T08:51:35.065Z,28.15
2019-04-04T08:54:05.895Z,27.46
2019-04-04T08:56:37.698Z,27.52
2019-04-04T08:59:08.387Z,27.97
2019-04-04T09:01:39.327Z,28.00
2019-04-04T09:04:11.898Z,28.08
2019-04-04T09:06:42.478Z,28.37
2019-04-04T09:09:13.374Z,28.54
2019-04-04T09:11:44.305Z,28.41
2019-04-04T09:14:15.149Z,28.23
2019-04-04T09:16:45.901Z,28.09
2019-04-04T09:19:16.702Z,27.47
2019-04-04T09:21:47.649Z,27.86
2019-04-04T09:24:18.481Z,28.30
2019-04-04T09:26:49.013Z,28.28
2019-04-04T09:29:20.051Z,27.88
2019-04-04T09:31:50.994Z,27.73
2019-04-04T09:34:21.957Z,27.96
2019-04-04T09:36:53.898Z,28.52
2019-04-04T09:39:24.639Z,27.82
2019-04-04T09:41:55.566Z,27.69
2019-04-04T09:44:26.521Z,27.45
2019-04-04T09:47:05.282Z,27.03
2019-04-04T09:49:29.883Z,27.00
2019-04-04T09:52:03.252Z,26.77
2019-04-04T09:54:33.320Z,26.70
2019-04-04T09:57:04.282Z,26.95
2019-04-04T09:59:35.311Z,27.06
2019-04-04T10:02:06.904Z,26.39
2019-04-04T10:04:37.696Z,26.51
2019-04-04T10:07:08.244Z,26.70
2019-04-04T10:09:41.729Z,26.47
2019-04-04T10:12:12.351Z,27.19
2019-04-04T10:14:43.394Z,26.48
2019-04-04T10:17:14.077Z,26.96
2019-04-04T10:19:46.395Z,27.48
2019-04-04T10:22:17.238Z,26.78
2019-04-04T10:24:48.074Z,26.74
2019-04-04T10:27:19.049Z,27.05
2019-04-04T10:29:49.749Z,26.98
2019-04-04T10:32:20.172Z,27.05
2019-04-04T10:34:50.948Z,27.28
2019-04-04T10:37:21.865Z,27.28
2019-04-04T10:39:52.673Z,28.30
2019-04-04T10:42:23.519Z,26.70
2019-04-04T10:44:54.273Z,26.67
2019-04-04T10:47:25.184Z,26.38
2019-04-04T10:49:58.436Z,26.79
2019-04-04T10:52:28.294Z,26.54
2019-04-04T10:55:01.333Z,26.97
2019-04-04T10:57:31.809Z,26.68
2019-04-04T11:00:03.363Z,27.31
2019-04-04T11:02:34.201Z,27.19
2019-04-04T11:05:06.373Z,27.51
2019-04-04T11:07:37.308Z,27.63
2019-04-04T11:10:08.780Z,27.23
2019-04-04T11:12:39.692Z,26.80
2019-04-04T11:15:12.263Z,26.91
2019-04-04T11:17:45.863Z,26.66
2019-04-04T11:20:16.704Z,26.76
2019-04-04T11:22:47.542Z,26.34
2019-04-04T11:25:18.369Z,26.60
2019-04-04T11:27:49.240Z,27.00
2019-04-04T11:30:19.633Z,27.06
2019-04-04T11:32:50.455Z,26.81
2019-04-04T11:35:21.509Z,27.57
2019-04-04T11:37:52.253Z,27.31
2019-04-04T11:40:23.082Z,26.35
2019-04-04T11:42:53.828Z,25.83
2019-04-04T11:45:24.345Z,25.98
2019-04-04T11:47:54.934Z,26.25
2019-04-04T11:50:25.715Z,26.31
2019-04-04T11:52:56.647Z,25.58
2019-04-04T11:55:27.583Z,26.26
2019-04-04T11:57:58.523Z,26.19
2019-04-04T12:00:33.685Z,25.33
2019-04-04T12:03:04.508Z,25.37
2019-04-04T12:05:35.439Z,24.67
2019-04-04T12:08:06.280Z,25.13
2019-04-04T12:10:37.104Z,25.12
2019-04-04T12:13:07.952Z,25.06
2019-04-04T12:15:38.778Z,25.19
2019-04-04T12:18:09.613Z,25.31
2019-04-04T12:20:43.545Z,25.31
2019-04-04T12:23:14.060Z,25.50
2019-04-04T12:25:44.475Z,26.24
2019-04-04T12:28:15.418Z,25.11
2019-04-04T12:30:46.147Z,25.33
2019-04-04T12:33:17.092Z,25.87
2019-04-04T12:35:47.821Z,26.27
2019-04-04T12:38:18.866Z,26.19
2019-04-04T12:40:49.814Z,26.46
2019-04-04T12:43:20.643Z,25.92
2019-04-04T12:45:51.467Z,25.70
2019-04-04T12:48:22.410Z,26.12
2019-04-04T12:50:53.347Z,26.05
2019-04-04T12:53:24.189Z,25.67
2019-04-04T12:55:54.917Z,25.73
2019-04-04T12:58:25.752Z,26.19
2019-04-04T13:00:56.591Z,26.11
2019-04-04T13:03:27.156Z,26.39
2019-04-04T13:05:57.954Z,26.68
2019-04-04T13:08:30.608Z,26.09
2019-04-04T13:11:00.882Z,26.50
2019-04-04T13:13:31.792Z,26.25
2019-04-04T13:16:02.631Z,26.54
2019-04-04T13:18:33.569Z,27.13
2019-04-04T13:21:04.506Z,26.83
2019-04-04T13:23:35.245Z,25.65
2019-04-04T13:26:06.177Z,25.26
2019-04-04T13:28:37.021Z,25.59
2019-04-04T13:31:07.874Z,26.07
2019-04-04T13:33:38.695Z,25.91
2019-04-04T13:36:09.623Z,26.18
2019-04-04T13:38:40.356Z,25.81
2019-04-04T13:41:21.282Z,26.21
2019-04-04T13:43:43.291Z,26.15
2019-04-04T13:46:14.014Z,26.66
2019-04-04T13:48:44.834Z,26.74
2019-04-04T13:51:15.647Z,28.34
2019-04-04T13:53:49.993Z,27.10
2019-04-04T13:56:20.508Z,26.76
2019-04-04T13:58:51.445Z,26.82
2019-04-04T14:01:25.183Z,26.67
2019-04-04T14:03:54.562Z,26.45
2019-04-04T14:06:25.297Z,26.24
2019-04-04T14:08:56.126Z,26.30
2019-04-04T14:11:27.065Z,26.33
2019-04-04T14:13:59.533Z,26.61
2019-04-04T14:16:30.574Z,26.44
2019-04-04T14:19:01.415Z,26.17
2019-04-04T14:21:32.352Z,26.42
2019-04-04T14:24:12.935Z,26.91
2019-04-04T14:26:35.871Z,27.44
2019-04-04T14:29:06.599Z,27.33
2019-04-04T14:31:37.534Z,27.16
2019-04-04T14:34:11.313Z,27.29
2019-04-04T14:36:40.545Z,26.83
2019-04-04T14:39:11.378Z,27.11
2019-04-04T14:41:42.325Z,27.81
2019-04-04T14:44:15.514Z,27.35
2019-04-04T14:46:45.664Z,27.43
2019-04-04T14:49:16.575Z,27.44
2019-04-04T14:51:48.324Z,27.31
2019-04-04T14:54:18.661Z,27.01
2019-04-04T14:56:49.885Z,27.14
2019-04-04T14:59:20.650Z,27.18
2019-04-04T15:01:51.482Z,27.30
2019-04-04T15:04:22.198Z,28.68
2019-04-04T15:06:52.926Z,28.77
2019-04-04T15:09:23.678Z,28.62
2019-04-04T15:11:54.503Z,27.81
2019-04-04T15:14:25.339Z,27.77
2019-04-04T15:16:56.170Z,27.75
2019-04-04T15:19:27.004Z,28.05
2019-04-04T15:21:57.737Z,27.80
2019-04-04T15:24:28.677Z,27.93
2019-04-04T15:26:59.513Z,27.83
2019-04-04T15:29:30.659Z,27.99
2019-04-04T15:32:01.606Z,28.18
2019-04-04T15:34:31.993Z,28.23
2019-04-04T15:37:02.855Z,27.99
2019-04-04T15:42:46.850Z,28.96
2019-04-04T15:45:17.453Z,28.08
2019-04-04T15:47:47.917Z,28.91
2019-04-04T15:50:18.817Z,28.98
2019-04-04T15:52:49.760Z,30.18
2019-04-04T15:55:20.288Z,29.02
2019-04-04T15:57:51.174Z,29.28
2019-04-04T16:00:22.059Z,29.35
2019-04-04T16:02:53.064Z,29.33
2019-04-04T16:05:23.963Z,28.94
2019-04-04T16:07:54.867Z,29.09
2019-04-04T16:10:25.815Z,29.57
2019-04-04T16:12:56.657Z,31.30
2019-04-04T16:15:27.508Z,29.95
2019-04-04T16:18:01.104Z,30.17
2019-04-04T16:20:30.435Z,30.30
2019-04-04T16:23:00.914Z,30.18
2019-04-04T16:25:31.543Z,30.21
2019-04-04T16:28:02.277Z,30.57
2019-04-04T16:30:33.007Z,30.55
2019-04-04T16:33:03.637Z,31.08
2019-04-04T16:35:34.592Z,30.69
2019-04-04T16:38:05.419Z,30.92
2019-04-04T16:40:35.845Z,30.93
2019-04-04T16:43:06.692Z,31.69
2019-04-04T16:45:37.525Z,31.74
2019-04-04T16:48:08.282Z,32.26
2019-04-04T16:50:38.775Z,31.74
2019-04-04T16:53:09.722Z,31.40
2019-04-04T16:55:41.167Z,31.17
2019-04-04T16:58:13.641Z,31.17
2019-04-04T17:00:44.390Z,30.93
2019-04-04T17:03:15.316Z,31.08
2019-04-04T17:05:45.942Z,30.97
2019-04-04T17:08:16.782Z,31.24
2019-04-04T17:10:47.622Z,32.05
2019-04-04T17:13:18.463Z,31.26
2019-04-04T17:15:49.006Z,30.94
2019-04-04T17:18:19.839Z,30.99
2019-04-04T17:20:52.809Z,31.15
2019-04-04T17:23:23.922Z,30.68
2019-04-04T17:25:54.440Z,30.51
2019-04-04T17:28:25.105Z,30.67
2019-04-04T17:30:56.041Z,31.00
2019-04-04T17:33:27.404Z,31.09
2019-04-04T17:35:58.325Z,31.05
2019-04-04T17:38:29.564Z,30.70
2019-04-04T17:41:00.311Z,31.05
2019-04-04T17:43:31.294Z,31.29
2019-04-04T17:46:02.235Z,31.66
2019-04-04T17:48:33.535Z,31.63
2019-04-04T17:51:04.483Z,31.92
2019-04-04T17:53:35.474Z,31.60
2019-04-04T17:56:06.391Z,31.55
2019-04-04T17:58:39.546Z,31.62
2019-04-04T18:01:12.176Z,31.41
2019-04-04T18:03:42.642Z,31.74
2019-04-04T18:06:13.690Z,31.91
2019-04-04T18:08:44.627Z,32.61
2019-04-04T18:11:15.579Z,32.41
2019-04-04T18:13:46.092Z,32.75
2019-04-04T18:16:17.029Z,32.74
2019-04-04T18:18:47.869Z,33.29
2019-04-04T18:21:18.714Z,33.37
2019-04-04T18:23:49.449Z,33.03
2019-04-04T18:26:20.329Z,33.34
2019-04-04T18:28:51.130Z,33.12
2019-04-04T18:31:21.939Z,33.11
2019-04-04T18:33:52.713Z,33.56
2019-04-04T18:36:23.611Z,33.61
2019-04-04T18:38:54.448Z,34.50
2019-04-04T18:41:25.307Z,34.56
2019-04-04T18:43:56.124Z,34.97
2019-04-04T18:46:26.852Z,34.56
2019-04-04T18:48:59.128Z,33.54
2019-04-04T18:51:30.064Z,33.76
2019-04-04T18:54:01.002Z,33.17
2019-04-04T18:56:31.730Z,33.57
2019-04-04T18:59:02.781Z,33.88
2019-04-04T19:01:33.612Z,33.78
2019-04-04T19:04:04.351Z,33.22
2019-04-04T19:06:35.330Z,34.23
2019-04-04T19:09:14.973Z,34.08
2019-04-04T19:11:42.387Z,33.61
2019-04-04T19:14:12.912Z,33.85
2019-04-04T19:16:43.643Z,34.48
2019-04-04T19:19:14.489Z,34.43
2019-04-04T19:21:45.326Z,34.41
2019-04-04T19:24:15.889Z,34.14
2019-04-04T19:26:46.574Z,34.18
2019-04-04T19:29:17.719Z,34.79
2019-04-04T19:31:48.251Z,34.41
2019-04-04T19:34:19.191Z,34.62
2019-04-04T19:36:50.249Z,34.30
2019-04-04T19:39:24.039Z,34.22
2019-04-04T19:41:54.566Z,34.24
2019-04-04T19:44:25.509Z,34.55
2019-04-04T19:46:56.352Z,34.42
2019-04-04T19:49:27.292Z,34.50
2019-04-04T19:51:58.118Z,34.42
2019-04-04T19:54:29.054Z,33.97
2019-04-04T19:57:00.227Z,34.16
2019-04-04T19:59:30.947Z,34.35
2019-04-04T20:02:01.717Z,33.49
2019-04-04T20:04:32.501Z,32.71
2019-04-04T20:07:04.362Z,33.30
2019-04-04T20:09:35.202Z,33.96
2019-04-04T20:12:06.028Z,34.54
2019-04-04T20:14:36.870Z,35.27
2019-04-04T20:17:07.715Z,35.88
2019-04-04T20:19:38.538Z,36.40
2019-04-04T20:22:09.374Z,36.81
2019-04-04T20:24:40.322Z,36.81
2019-04-04T20:27:11.254Z,37.41
2019-04-04T20:29:42.188Z,36.88
2019-04-04T20:32:13.230Z,37.16
2019-04-04T20:34:44.178Z,37.12
2019-04-04T20:37:15.007Z,37.41
2019-04-04T20:39:45.946Z,37.71
2019-04-04T20:42:16.782Z,38.04
2019-04-04T20:44:47.504Z,38.48
2019-04-04T20:47:18.344Z,38.41
2019-04-04T20:49:49.289Z,38.67
2019-04-04T20:52:20.045Z,38.80
2019-04-04T20:54:51.066Z,39.02
2019-04-04T20:57:21.800Z,39.08
2019-04-04T20:59:52.937Z,39.21
2019-04-04T21:02:23.779Z,39.58
2019-04-04T21:04:54.717Z,40.18
2019-04-04T21:07:28.825Z,40.59
2019-04-04T21:09:59.769Z,40.73
2019-04-04T21:12:30.707Z,41.25
2019-04-04T21:15:01.536Z,41.65
2019-04-04T21:17:32.475Z,41.78
2019-04-04T21:20:03.333Z,41.89
2019-04-04T21:22:34.042Z,42.59
2019-04-04T21:25:05.333Z,43.60
2019-04-04T21:27:38.382Z,44.24
2019-04-04T21:30:08.806Z,43.10
2019-04-04T21:32:39.537Z,42.24
2019-04-04T21:35:10.375Z,42.42
2019-04-04T21:37:41.217Z,42.96
2019-04-04T21:40:12.044Z,43.47
2019-04-04T21:42:42.879Z,43.16
2019-04-04T21:45:15.253Z,44.21
2019-04-04T21:47:46.191Z,45.29
2019-04-04T21:50:16.827Z,44.99
2019-04-04T21:52:47.459Z,45.58
2019-04-04T21:55:18.431Z,45.61
2019-04-04T21:57:48.927Z,45.76
2019-04-04T22:00:19.965Z,46.13
2019-04-04T22:02:50.601Z,46.09
2019-04-04T22:05:21.538Z,46.99
2019-04-04T22:07:52.372Z,47.71
2019-04-04T22:10:23.321Z,48.74
2019-04-04T22:12:54.148Z,47.67
2019-04-04T22:15:24.985Z,47.57
2019-04-04T22:17:55.920Z,47.60
2019-04-04T22:20:26.762Z,47.08
2019-04-04T22:22:57.472Z,47.15
2019-04-04T22:25:28.427Z,47.29
2019-04-04T22:27:59.264Z,47.50
2019-04-04T22:30:30.304Z,48.00
2019-04-04T22:33:01.865Z,48.55
2019-04-04T22:35:32.685Z,49.22
2019-04-04T22:38:03.529Z,48.94
2019-04-04T22:40:34.368Z,49.78
2019-04-04T22:43:05.204Z,49.79
2019-04-04T22:45:36.401Z,49.91
2019-04-04T22:48:07.082Z,49.61
2019-04-04T22:50:37.706Z,48.59
2019-04-04T22:53:08.539Z,48.30
2019-04-04T22:55:39.375Z,47.54
2019-04-04T22:58:11.644Z,45.80
2019-04-04T23:00:42.385Z,47.32
2019-04-04T23:03:13.433Z,47.55
2019-04-04T23:05:44.152Z,47.28
2019-04-04T23:08:14.890Z,47.97
2019-04-04T23:10:45.521Z,48.28
2019-04-04T23:13:16.365Z,47.90
2019-04-04T23:15:47.189Z,48.32
2019-04-04T23:18:18.134Z,48.29
2019-04-04T23:20:49.114Z,50.56
2019-04-04T23:23:19.810Z,48.69
2019-04-04T23:25:50.742Z,48.00
2019-04-04T23:28:21.675Z,48.52
2019-04-04T23:30:52.619Z,48.40
2019-04-04T23:33:23.456Z,48.74
2019-04-04T23:35:54.216Z,49.67
2019-04-04T23:38:24.918Z,50.33
2019-04-04T23:40:55.869Z,50.50
2019-04-04T23:43:26.688Z,51.24
2019-04-04T23:45:58.156Z,51.63
2019-04-04T23:48:28.671Z,51.71
2019-04-04T23:50:59.611Z,51.73
2019-04-04T23:53:30.144Z,51.31
2019-04-04T23:56:01.181Z,51.66
2019-04-04T23:58:32.223Z,51.94
